Time;durP1;ratioP1;P1;durP2;ratioP2;P2;SDS_P1;SDS_P2;PMS_P1;PMS_P2;Temp;Humidity;BMP_temperature;BMP_pressure;BME280_temperature;BME280_humidity;BME280_pressure;Samples;Min_cycle;Max_cycle;Signal;HPM_P1;HPM_P2
2021/10/18 00:01:30;;;;;;;15.23;12.43;;;;;;;14.58;69.39;100666.84;5013755;28;20068;-93
2021/10/18 00:03:56;;;;;;;15.30;12.50;;;;;;;14.68;69.44;100664.31;5013527;28;20018;-92
2021/10/18 00:06:21;;;;;;;14.38;11.38;;;;;;;14.75;69.86;100657.56;5013466;28;20025;-92
2021/10/18 00:08:46;;;;;;;17.05;13.55;;;;;;;14.71;70.36;100661.44;4995844;28;20492;-93
2021/10/18 00:11:12;;;;;;;19.88;14.30;;;;;;;14.74;70.38;100655.06;4995639;28;20053;-92
2021/10/18 00:13:38;;;;;;;17.90;13.85;;;;;;;14.78;69.63;100659.13;4995797;28;20018;-92
2021/10/18 00:16:03;;;;;;;15.57;12.80;;;;;;;14.77;69.83;100652.13;5013159;28;20044;-92
2021/10/18 00:18:29;;;;;;;16.40;13.05;;;;;;;14.74;69.49;100658.53;5013305;28;20108;-93
2021/10/18 00:20:55;;;;;;;18.00;14.05;;;;;;;14.73;69.23;100650.72;5013294;28;20227;-93
2021/10/18 00:23:20;;;;;;;19.35;13.85;;;;;;;14.74;68.74;100652.41;5013263;28;20018;-92
2021/10/18 00:25:46;;;;;;;15.65;12.95;;;;;;;14.74;68.88;100641.84;5013226;28;20468;-92
2021/10/18 00:28:11;;;;;;;16.40;13.05;;;;;;;14.70;68.65;100651.81;5013104;28;20049;-92
2021/10/18 00:30:37;;;;;;;16.67;14.10;;;;;;;14.66;68.96;100650.38;5013174;28;20064;-93
2021/10/18 00:33:03;;;;;;;15.95;13.05;;;;;;;14.65;68.78;100651.34;5012941;28;20018;-93
2021/10/18 00:35:28;;;;;;;15.75;13.70;;;;;;;14.62;68.90;100643.66;5012994;28;20407;-92
2021/10/18 00:37:54;;;;;;;15.63;12.35;;;;;;;14.57;68.90;100653.75;5013081;28;20033;-93
2021/10/18 00:40:19;;;;;;;18.92;13.05;;;;;;;14.55;69.17;100648.56;5012977;28;20069;-93
2021/10/18 00:42:44;;;;;;;16.40;12.60;;;;;;;14.50;69.29;100645.47;5013214;28;20025;-92
2021/10/18 00:45:10;;;;;;;17.50;13.93;;;;;;;14.50;69.26;100644.63;5012893;28;20033;-92
2021/10/18 00:47:37;;;;;;;19.05;13.70;;;;;;;14.45;69.71;100637.06;4994714;28;20033;-93
2021/10/18 00:50:05;;;;;;;19.52;14.07;;;;;;;14.50;69.28;100644.63;5012848;28;20029;-92
2021/10/18 00:52:33;;;;;;;16.05;13.57;;;;;;;14.50;69.77;100648.13;5012923;28;20018;-93
2021/10/18 00:54:59;;;;;;;15.43;11.60;;;;;;;14.48;69.33;100642.13;5012733;28;20026;-92
2021/10/18 00:57:24;;;;;;;15.30;12.00;;;;;;;14.46;69.77;100644.03;4994899;28;20026;-93
2021/10/18 00:59:51;;;;;;;16.33;12.32;;;;;;;14.40;69.14;100633.97;5012665;28;20029;-92
2021/10/18 01:02:17;;;;;;;15.30;12.30;;;;;;;14.40;69.52;100649.81;5012341;28;20022;-93
2021/10/18 01:04:43;;;;;;;17.85;12.35;;;;;;;14.40;69.10;100649.81;5012573;28;20392;-92
2021/10/18 01:07:08;;;;;;;17.58;12.93;;;;;;;14.37;69.31;100639.50;5012172;28;20030;-92
2021/10/18 01:09:34;;;;;;;17.50;12.57;;;;;;;14.38;68.89;100646.47;5012579;28;20366;-93
2021/10/18 01:11:59;;;;;;;15.70;12.10;;;;;;;14.38;69.19;100651.75;5012341;28;20108;-92
2021/10/18 01:14:25;;;;;;;14.40;11.55;;;;;;;14.41;69.20;100635.63;4994746;28;20056;-92
2021/10/18 01:16:50;;;;;;;15.30;11.77;;;;;;;14.41;69.17;100640.91;5011928;28;20380;-93
2021/10/18 01:19:18;;;;;;;14.65;11.60;;;;;;;14.37;69.21;100637.69;4994533;28;20073;-92
2021/10/18 01:21:44;;;;;;;14.77;11.38;;;;;;;14.41;69.60;100651.47;4994670;28;20028;-92
2021/10/18 01:24:11;;;;;;;15.82;12.35;;;;;;;14.37;69.67;100635.03;5012374;28;20097;-93
2021/10/18 01:26:37;;;;;;;15.10;11.40;;;;;;;14.35;69.76;100642.25;5012220;28;20022;-92
2021/10/18 01:29:03;;;;;;;18.23;14.23;;;;;;;14.36;69.67;100640.47;5012190;28;20499;-93
2021/10/18 01:31:28;;;;;;;19.02;12.02;;;;;;;14.33;69.82;100643.34;4994172;28;20041;-92
2021/10/18 01:33:54;;;;;;;17.10;12.57;;;;;;;14.26;69.86;100657.03;5012149;28;20022;-92
2021/10/18 01:36:19;;;;;;;16.25;13.38;;;;;;;14.25;70.02;100665.06;5012174;28;20026;-93
2021/10/18 01:38:45;;;;;;;17.52;13.82;;;;;;;14.15;69.86;100664.97;4994572;28;20067;-92
2021/10/18 01:41:11;;;;;;;16.88;12.65;;;;;;;14.17;69.84;100663.03;5012136;28;20384;-93
2021/10/18 01:43:36;;;;;;;17.52;13.77;;;;;;;14.12;69.34;100659.94;5012176;28;20496;-93
2021/10/18 01:46:03;;;;;;;19.88;13.80;;;;;;;14.20;69.85;100662.81;5011726;28;20034;-93
2021/10/18 01:48:28;;;;;;;15.68;13.27;;;;;;;14.11;70.70;100665.34;5011811;28;20064;-93
2021/10/18 01:50:54;;;;;;;17.33;13.45;;;;;;;14.10;70.31;100659.22;5011910;28;20490;-92
2021/10/18 01:53:19;;;;;;;18.88;12.63;;;;;;;14.18;70.66;100656.81;4994534;28;20026;-92
2021/10/18 01:55:45;;;;;;;16.77;11.70;;;;;;;14.14;70.45;100647.47;5012025;28;20121;-91
2021/10/18 01:58:13;;;;;;;16.42;12.45;;;;;;;14.16;70.65;100648.16;5012002;28;20025;-92
2021/10/18 02:00:42;;;;;;;16.77;12.27;;;;;;;14.17;70.98;100660.41;4994441;28;20030;-93
2021/10/18 02:03:08;;;;;;;18.88;13.70;;;;;;;14.19;71.21;100647.91;4993620;28;20053;-92
2021/10/18 02:05:34;;;;;;;18.13;13.07;;;;;;;14.19;71.34;100629.44;5011803;28;20026;-92
2021/10/18 02:07:59;;;;;;;17.65;13.90;;;;;;;14.19;71.98;100624.16;5013104;28;20030;-93
2021/10/18 02:10:25;;;;;;;17.52;13.35;;;;;;;14.27;71.86;100632.28;5015829;28;20030;-93
2021/10/18 02:12:51;;;;;;;16.83;13.13;;;;;;;14.24;71.89;100631.72;4998107;28;20026;-93
2021/10/18 02:15:16;;;;;;;15.77;12.88;;;;;;;14.13;72.51;100631.72;5015623;28;20029;-91
2021/10/18 02:17:42;;;;;;;18.08;13.38;;;;;;;14.16;72.45;100627.03;5015059;28;20096;-92
2021/10/18 02:20:10;;;;;;;18.15;12.65;;;;;;;14.21;72.33;100613.47;5015675;28;20527;-92
2021/10/18 02:22:35;;;;;;;19.10;13.05;;;;;;;14.10;72.00;100614.34;5015478;28;20033;-92
2021/10/18 02:25:02;;;;;;;16.60;13.20;;;;;;;14.09;72.46;100607.34;5015041;28;20105;-91
2021/10/18 02:27:27;;;;;;;15.40;11.18;;;;;;;14.07;72.29;100596.91;5015165;28;20038;-92
2021/10/18 02:29:53;;;;;;;19.70;12.63;;;;;;;14.08;72.63;100587.22;5015447;28;20399;-92
2021/10/18 02:32:18;;;;;;;20.13;13.77;;;;;;;14.11;72.85;100600.16;5015366;28;20052;-92
2021/10/18 02:34:44;;;;;;;16.10;13.30;;;;;;;14.14;72.96;100602.56;5015027;28;20384;-91
2021/10/18 02:37:09;;;;;;;22.00;15.88;;;;;;;14.14;73.34;100588.50;5015152;28;20119;-92
2021/10/18 02:39:34;;;;;;;21.08;13.13;;;;;;;14.17;73.06;100586.47;5015100;28;20152;-92
2021/10/18 02:42:00;;;;;;;18.23;13.52;;;;;;;14.18;73.43;100579.38;5015022;28;20228;-92
2021/10/18 02:44:25;;;;;;;15.70;13.20;;;;;;;14.27;73.77;100560.16;5015608;28;20100;-92
2021/10/18 02:46:51;;;;;;;16.67;12.20;;;;;;;14.19;74.01;100552.84;4997451;28;20281;-93
2021/10/18 02:49:16;;;;;;;15.93;13.07;;;;;;;14.31;74.47;100568.66;4997636;28;20029;-93
2021/10/18 02:51:42;;;;;;;17.55;13.98;;;;;;;14.29;74.69;100564.34;5015171;28;20440;-93
2021/10/18 02:54:08;;;;;;;18.45;14.35;;;;;;;14.48;74.33;100573.41;4997079;28;20033;-92
2021/10/18 02:56:33;;;;;;;20.30;14.73;;;;;;;14.55;74.05;100568.47;5015011;28;20109;-93
2021/10/18 02:58:59;;;;;;;21.55;16.35;;;;;;;14.63;74.42;100560.78;5015018;28;20109;-93
2021/10/18 03:01:24;;;;;;;19.67;14.85;;;;;;;14.67;74.50;100557.78;5014893;28;20026;-92
2021/10/18 03:03:49;;;;;;;22.92;14.80;;;;;;;14.73;74.40;100545.00;5014904;28;20473;-92
2021/10/18 03:06:15;;;;;;;19.95;14.75;;;;;;;14.75;74.52;100551.84;5014640;28;20053;-92
2021/10/18 03:08:40;;;;;;;22.20;15.95;;;;;;;14.72;73.88;100552.09;5014426;28;20044;-92
2021/10/18 03:11:05;;;;;;;21.80;16.25;;;;;;;14.72;74.68;100553.91;5014761;28;20021;-93
2021/10/18 03:13:31;;;;;;;24.02;15.45;;;;;;;14.71;74.79;100552.22;5014731;28;20168;-92
2021/10/18 03:15:56;;;;;;;19.08;15.13;;;;;;;14.68;75.04;100548.03;5014420;28;20061;-93
2021/10/18 03:18:22;;;;;;;22.27;14.57;;;;;;;14.70;75.33;100547.91;5014433;28;20034;-93
2021/10/18 03:20:47;;;;;;;19.33;14.45;;;;;;;14.64;74.87;100541.31;5013644;28;20478;-94
2021/10/18 03:23:12;;;;;;;21.80;15.50;;;;;;;14.61;75.11;100531.84;5014314;28;20034;-92
2021/10/18 03:25:38;;;;;;;20.92;15.75;;;;;;;14.64;75.77;100528.94;5014365;28;20018;-92
2021/10/18 03:28:04;;;;;;;22.95;16.45;;;;;;;14.62;76.20;100544.09;5014264;28;20040;-93
2021/10/18 03:30:30;;;;;;;21.92;15.95;;;;;;;14.64;77.03;100536.03;5014434;28;20041;-93
2021/10/18 03:32:56;;;;;;;26.65;16.38;;;;;;;14.64;76.65;100528.94;5014282;28;20034;-94
2021/10/18 03:35:22;;;;;;;20.85;16.02;;;;;;;14.67;76.35;100536.63;5014271;28;20026;-93
2021/10/18 03:37:47;;;;;;;20.77;15.95;;;;;;;14.62;76.68;100527.41;4996120;28;20594;-92
2021/10/18 03:40:13;;;;;;;26.95;16.30;;;;;;;14.68;77.17;100527.72;5014134;28;20033;-94
2021/10/18 03:42:39;;;;;;;21.00;16.13;;;;;;;14.64;77.34;100539.50;4996549;28;20058;-93
2021/10/18 03:45:07;;;;;;;19.63;15.60;;;;;;;14.60;77.71;100550.47;5014079;28;20026;-93
2021/10/18 03:47:32;;;;;;;19.05;15.75;;;;;;;14.64;77.24;100552.72;4996207;28;20050;-93
2021/10/18 03:49:58;;;;;;;18.42;13.98;;;;;;;14.63;76.67;100539.63;5014153;28;20054;-93
2021/10/18 03:52:23;;;;;;;19.60;15.23;;;;;;;14.64;77.05;100542.16;5013562;28;20072;-93
2021/10/18 03:54:48;;;;;;;18.95;14.25;;;;;;;14.82;76.91;100550.34;5013742;28;20480;-93
2021/10/18 03:57:14;;;;;;;20.98;15.35;;;;;;;14.91;76.91;100550.53;4996033;28;20026;-93
2021/10/18 03:59:39;;;;;;;21.98;14.85;;;;;;;14.93;76.95;100530.97;5013758;28;20080;-92
2021/10/18 04:02:06;;;;;;;23.90;17.42;;;;;;;15.00;78.09;100550.63;5013789;28;20484;-93
2021/10/18 04:04:32;;;;;;;24.92;16.77;;;;;;;15.02;77.76;100543.38;4996086;28;20443;-92
2021/10/18 04:06:57;;;;;;;22.92;15.55;;;;;;;15.06;78.21;100555.38;5013534;28;20061;-93
2021/10/18 04:09:22;;;;;;;23.95;16.25;;;;;;;15.19;78.22;100557.00;5013717;28;20061;-93
2021/10/18 04:11:48;;;;;;;19.05;14.73;;;;;;;15.18;78.12;100550.84;4995802;28;20092;-94
2021/10/18 04:14:13;;;;;;;22.58;16.42;;;;;;;15.29;78.62;100555.25;5013584;28;20052;-93
2021/10/18 04:16:39;;;;;;;22.25;17.08;;;;;;;15.30;78.13;100558.72;5013491;28;20032;-93
2021/10/18 04:19:05;;;;;;;20.00;15.38;;;;;;;15.41;78.04;100556.84;4996170;28;20032;-94
2021/10/18 04:21:30;;;;;;;20.02;14.45;;;;;;;15.42;78.08;100557.66;4995994;28;20026;-94
2021/10/18 04:23:55;;;;;;;24.27;15.25;;;;;;;15.46;77.77;100559.94;5013427;28;20472;-94
2021/10/18 04:26:21;;;;;;;23.00;16.67;;;;;;;15.48;78.08;100562.44;4995646;28;20045;-94
2021/10/18 04:28:46;;;;;;;21.88;16.15;;;;;;;15.49;78.56;100563.28;4995256;28;20116;-94
2021/10/18 04:31:12;;;;;;;23.33;16.50;;;;;;;15.51;78.84;100572.75;4995493;28;20113;-93
2021/10/18 04:33:37;;;;;;;21.02;15.38;;;;;;;15.61;78.00;100567.50;5013264;28;20542;-94
2021/10/18 04:36:03;;;;;;;21.48;15.60;;;;;;;15.69;77.43;100575.63;5013318;28;20554;-94
2021/10/18 04:38:29;;;;;;;21.90;17.10;;;;;;;15.67;77.59;100567.81;4995600;28;20034;-94
2021/10/18 04:40:54;;;;;;;21.17;15.63;;;;;;;15.62;77.70;100566.53;5013258;28;20030;-93
2021/10/18 04:43:20;;;;;;;26.70;17.15;;;;;;;15.60;78.19;100573.75;5012833;28;20026;-93
2021/10/18 04:45:45;;;;;;;23.65;16.05;;;;;;;15.70;77.69;100565.88;4995343;28;20022;-94
2021/10/18 04:48:11;;;;;;;22.40;16.05;;;;;;;15.73;77.54;100579.72;5012732;28;20072;-93
2021/10/18 04:50:36;;;;;;;21.67;15.25;;;;;;;15.66;77.99;100576.72;4995438;28;20480;-93
2021/10/18 04:53:02;;;;;;;20.60;15.52;;;;;;;15.67;77.97;100577.56;4995437;28;20022;-94
2021/10/18 04:55:27;;;;;;;18.98;15.30;;;;;;;15.67;77.80;100565.16;4995550;28;20384;-94
2021/10/18 04:58:00;;;;;;;20.77;15.05;;;;;;;15.74;77.93;100578.75;4994904;28;20025;-94
2021/10/18 05:00:27;;;;;;;18.92;14.85;;;;;;;15.65;78.33;100572.41;5012825;28;20480;-94
2021/10/18 05:02:53;;;;;;;22.95;15.15;;;;;;;15.60;78.28;100571.13;4995447;28;20030;-95
2021/10/18 05:05:19;;;;;;;21.13;15.82;;;;;;;15.61;78.19;100567.50;4995325;28;20376;-94
2021/10/18 05:07:45;;;;;;;20.98;14.38;;;;;;;15.67;77.71;100565.16;4994977;28;20026;-94
2021/10/18 05:10:12;;;;;;;19.50;14.43;;;;;;;16.05;76.00;100565.44;4995622;28;20395;-95
2021/10/18 05:12:38;;;;;;;20.00;14.50;;;;;;;16.16;74.81;100552.09;4995178;28;20026;-95
2021/10/18 05:15:06;;;;;;;18.33;13.52;;;;;;;16.23;74.59;100553.25;4995339;28;20519;-95
2021/10/18 05:17:32;;;;;;;20.65;16.00;;;;;;;16.23;74.44;100537.34;4995065;28;20036;-95
2021/10/18 05:19:58;;;;;;;20.80;13.93;;;;;;;16.30;74.30;100536.78;4995254;28;20018;-94
2021/10/18 05:22:23;;;;;;;19.55;14.68;;;;;;;16.31;74.29;100526.06;4995232;28;20030;-94
2021/10/18 05:24:48;;;;;;;21.23;15.23;;;;;;;16.31;74.39;100531.34;4995361;28;20544;-94
2021/10/18 05:27:14;;;;;;;19.02;14.77;;;;;;;16.30;74.50;100537.63;4994703;28;20057;-93
2021/10/18 05:29:39;;;;;;;23.08;17.17;;;;;;;16.33;74.67;100533.84;5011387;28;20033;-93
2021/10/18 05:32:05;;;;;;;18.30;14.70;;;;;;;16.40;74.36;100522.56;5011291;28;20380;-93
2021/10/18 05:34:31;;;;;;;22.08;15.88;;;;;;;16.50;74.47;100517.25;5011965;28;20034;-93
2021/10/18 05:36:56;;;;;;;23.75;16.42;;;;;;;16.58;75.13;100514.72;5011892;28;20037;-94
2021/10/18 05:39:22;;;;;;;30.08;18.27;;;;;;;16.59;75.66;100515.59;5012029;28;20530;-94
2021/10/18 05:41:47;;;;;;;24.02;17.95;;;;;;;16.72;75.48;100513.47;5011562;28;20025;-93
2021/10/18 05:44:12;;;;;;;29.05;17.73;;;;;;;16.77;74.77;100497.16;4995902;28;20036;-93
2021/10/18 05:46:38;;;;;;;28.17;18.83;;;;;;;16.70;75.84;100512.78;5014658;28;20536;-94
2021/10/18 05:49:03;;;;;;;23.73;17.60;;;;;;;16.80;75.01;100504.81;4993852;28;20068;-94
2021/10/18 05:51:30;;;;;;;27.17;18.95;;;;;;;16.74;75.38;100502.72;5011862;28;20092;-94
2021/10/18 05:53:56;;;;;;;22.90;17.60;;;;;;;16.80;75.02;100492.38;5013501;28;20485;-95
2021/10/18 05:56:21;;;;;;;24.17;17.65;;;;;;;16.89;74.81;100490.72;4994978;28;20543;-92
2021/10/18 05:58:47;;;;;;;25.40;18.45;;;;;;;16.80;75.27;100502.97;5011746;28;20041;-92
2021/10/18 06:01:12;;;;;;;22.75;16.83;;;;;;;16.89;74.69;100484.59;5011848;28;20022;-93
2021/10/18 06:03:37;;;;;;;22.73;17.98;;;;;;;16.86;74.94;100475.09;5011706;28;20037;-93
2021/10/18 06:06:06;;;;;;;22.20;16.85;;;;;;;16.80;75.68;100452.59;4994129;28;20088;-94
2021/10/18 06:08:32;;;;;;;22.35;17.10;;;;;;;16.98;74.55;100442.16;4976609;28;20030;-94
2021/10/18 06:10:57;;;;;;;18.58;14.40;;;;;;;17.05;74.18;100437.06;5011857;28;20022;-94
2021/10/18 06:13:23;;;;;;;26.50;18.13;;;;;;;16.86;75.58;100443.28;5011601;28;20495;-95
2021/10/18 06:15:48;;;;;;;23.20;16.90;;;;;;;16.94;75.25;100455.81;4993817;28;20149;-95
2021/10/18 06:18:15;;;;;;;23.10;17.55;;;;;;;17.07;74.45;100466.94;4994286;28;20164;-94
2021/10/18 06:20:47;;;;;;;24.77;17.52;;;;;;;17.08;74.81;100462.47;4993887;28;20152;-93
2021/10/18 06:23:13;;;;;;;24.08;16.35;;;;;;;17.14;73.72;100456.59;5011702;28;20075;-92
2021/10/18 06:25:38;;;;;;;23.85;17.02;;;;;;;17.13;74.10;100428.41;5011750;28;20026;-94
2021/10/18 06:28:04;;;;;;;20.38;16.15;;;;;;;17.05;74.24;100435.25;5011656;28;20034;-94
2021/10/18 06:30:30;;;;;;;22.60;16.40;;;;;;;17.24;73.67;100428.22;4994360;28;20037;-92
2021/10/18 06:32:55;;;;;;;22.58;15.93;;;;;;;17.36;73.22;100432.34;5011796;28;20026;-92
2021/10/18 06:35:21;;;;;;;26.20;17.05;;;;;;;17.30;73.30;100435.59;5011273;28;20026;-92
2021/10/18 06:37:47;;;;;;;20.88;15.50;;;;;;;17.38;72.64;100442.81;5011973;28;20022;-93
2021/10/18 06:40:13;;;;;;;19.02;14.98;;;;;;;17.42;72.77;100445.00;5011600;28;20030;-93
2021/10/18 06:42:39;;;;;;;20.92;14.63;;;;;;;17.30;73.18;100427.63;5041592;23;20511;-92
2021/10/18 06:45:06;;;;;;;22.27;16.73;;;;;;;17.43;73.25;100438.69;5041495;28;20109;-93
2021/10/18 06:47:31;;;;;;;22.80;17.25;;;;;;;17.25;74.22;100438.66;5034572;28;20079;-90
2021/10/18 06:49:58;;;;;;;27.02;19.00;;;;;;;17.32;74.19;100444.22;5030567;28;20030;-91
2021/10/18 06:52:25;;;;;;;24.30;17.83;;;;;;;17.39;74.42;100450.59;5008755;28;20108;-91
2021/10/18 06:54:50;;;;;;;27.25;17.73;;;;;;;17.38;74.24;100448.13;5018419;28;20473;-92
2021/10/18 06:57:16;;;;;;;25.63;17.35;;;;;;;17.40;74.49;100438.19;5015223;28;20083;-92
2021/10/18 06:59:41;;;;;;;24.85;16.73;;;;;;;17.47;74.83;100435.78;5029153;28;20021;-92
2021/10/18 07:02:06;;;;;;;24.33;18.52;;;;;;;17.57;74.25;100428.56;5036624;28;20035;-93
2021/10/18 07:04:35;;;;;;;24.38;18.10;;;;;;;17.60;74.43;100436.25;5036020;28;20383;-92
2021/10/18 07:07:02;;;;;;;26.92;16.83;;;;;;;17.51;74.92;100418.56;5034132;28;20017;-93
2021/10/18 07:09:28;;;;;;;24.17;17.80;;;;;;;17.56;74.54;100429.56;5017543;28;20428;-92
2021/10/18 07:11:54;;;;;;;24.27;16.55;;;;;;;17.65;74.20;100439.28;5026741;28;20029;-91
2021/10/18 07:14:20;;;;;;;36.60;20.13;;;;;;;17.64;73.93;100437.63;5022947;28;20121;-93
2021/10/18 07:16:45;;;;;;;24.92;18.73;;;;;;;17.45;75.30;100427.94;5014552;28;20030;-92
2021/10/18 07:19:10;;;;;;;21.85;16.45;;;;;;;17.64;75.20;100450.91;4999729;28;20424;-92
2021/10/18 07:21:36;;;;;;;24.15;16.52;;;;;;;17.60;74.78;100430.94;5015988;28;20025;-92
2021/10/18 07:24:04;;;;;;;24.35;16.83;;;;;;;17.64;75.00;100448.25;5014260;28;20161;-94
2021/10/18 07:26:31;;;;;;;25.23;17.52;;;;;;;17.72;75.12;100450.16;5008802;28;20479;-93
2021/10/18 07:28:56;;;;;;;27.63;18.50;;;;;;;17.70;75.28;100439.69;4998358;28;20029;-93
2021/10/18 07:31:22;;;;;;;23.00;16.48;;;;;;;17.74;75.96;100450.84;5017255;28;20396;-92
2021/10/18 07:33:47;;;;;;;31.05;17.58;;;;;;;17.83;75.05;100463.19;4999955;28;20041;-91
2021/10/18 07:36:22;;;;;;;29.75;16.67;;;;;;;17.82;75.36;100451.75;5010883;28;20026;-92
2021/10/18 07:38:49;;;;;;;22.30;15.90;;;;;;;17.96;75.02;100457.56;5002378;28;20029;-93
2021/10/18 07:41:14;;;;;;;21.98;15.48;;;;;;;17.98;74.74;100439.66;5014056;28;20033;-92
2021/10/18 07:43:40;;;;;;;21.92;16.33;;;;;;;18.08;74.15;100440.41;4996392;28;20029;-93
2021/10/18 07:46:05;;;;;;;21.58;15.82;;;;;;;17.92;74.58;100422.50;5014157;28;20421;-92
2021/10/18 07:48:30;;;;;;;26.05;16.42;;;;;;;17.86;75.21;100430.25;5012654;28;20084;-92
2021/10/18 07:50:56;;;;;;;24.20;16.58;;;;;;;18.06;74.52;100431.75;5013778;28;20125;-93
2021/10/18 07:53:22;;;;;;;25.05;15.50;;;;;;;18.16;73.91;100424.53;5023348;28;20423;-92
2021/10/18 07:55:47;;;;;;;20.85;14.85;;;;;;;18.13;74.09;100422.19;5015767;28;20029;-92
2021/10/18 07:58:13;;;;;;;19.55;15.25;;;;;;;18.18;74.35;100430.53;5031528;28;20033;-93
2021/10/18 08:00:38;;;;;;;23.30;14.65;;;;;;;18.13;73.72;100426.69;5029646;28;20052;-92
2021/10/18 08:03:03;;;;;;;20.83;14.68;;;;;;;18.02;74.70;100419.78;5013466;28;20025;-93
2021/10/18 08:05:29;;;;;;;23.30;15.43;;;;;;;18.13;74.03;100427.53;5012987;28;20045;-92
2021/10/18 08:07:55;;;;;;;21.52;14.52;;;;;;;18.21;73.57;100427.59;5013332;28;20030;-92
2021/10/18 08:10:24;;;;;;;19.08;14.18;;;;;;;18.31;73.68;100419.53;5013503;28;20109;-92
2021/10/18 08:12:57;;;;;;;21.13;13.52;;;;;;;18.31;73.59;100424.00;5013392;28;20048;-93
2021/10/18 08:15:23;;;;;;;21.77;13.15;;;;;;;18.32;73.95;100420.34;4997850;28;20077;-92
2021/10/18 08:17:49;;;;;;;22.42;15.00;;;;;;;18.26;74.32;100415.66;5013160;28;20109;-93
2021/10/18 08:20:15;;;;;;;20.58;14.30;;;;;;;18.24;75.25;100419.28;5014606;28;20109;-93
2021/10/18 08:22:40;;;;;;;20.63;13.43;;;;;;;18.34;74.29;100423.69;5009023;28;20033;-92
2021/10/18 08:25:07;;;;;;;23.65;14.20;;;;;;;18.33;74.53;100419.38;5016354;28;20018;-91
2021/10/18 08:27:32;;;;;;;18.77;13.00;;;;;;;18.44;73.78;100419.09;4998363;28;20460;-93
2021/10/18 08:29:58;;;;;;;20.67;13.95;;;;;;;18.43;74.07;100422.78;5031960;28;20051;-92
2021/10/18 08:32:23;;;;;;;24.85;14.45;;;;;;;18.40;74.86;100425.72;5024728;28;20028;-92
2021/10/18 08:34:49;;;;;;;18.88;12.85;;;;;;;18.41;74.18;100428.22;5032624;28;20026;-92
2021/10/18 08:37:14;;;;;;;20.45;13.77;;;;;;;18.41;74.92;100430.06;5021129;28;20041;-92
2021/10/18 08:42:28;;;;;;;22.23;13.73;;;;;;;18.33;76.21;100427.34;5039608;28;20064;-93
2021/10/18 08:44:54;;;;;;;20.73;13.73;;;;;;;18.45;76.00;100420.78;5014241;28;20029;-93
2021/10/18 08:47:27;;;;;;;21.95;14.15;;;;;;;18.28;77.46;100425.13;5018138;28;20087;-93
2021/10/18 08:49:53;;;;;;;23.45;14.38;;;;;;;18.21;78.26;100419.59;5012686;28;20369;-93
2021/10/18 08:52:22;;;;;;;30.05;16.02;;;;;;;18.20;79.51;100425.91;5012933;28;20384;-93
2021/10/18 08:54:47;;;;;;;20.60;13.60;;;;;;;18.51;77.63;100414.84;5013438;28;20045;-92
2021/10/18 08:57:13;;;;;;;18.05;12.45;;;;;;;18.64;76.56;100425.06;5029592;28;20061;-92
2021/10/18 08:59:38;;;;;;;16.13;12.90;;;;;;;18.61;77.26;100414.75;5030806;28;20030;-92
2021/10/18 09:02:03;;;;;;;16.98;13.50;;;;;;;18.73;76.27;100407.34;4995190;28;20099;-94
2021/10/18 09:04:36;;;;;;;20.15;11.45;;;;;;;18.68;77.74;100402.50;5013020;28;20028;-92
2021/10/18 09:07:12;;;;;;;17.77;11.75;;;;;;;18.83;77.01;100398.28;5013203;28;20029;-94
2021/10/18 09:09:48;;;;;;;16.25;11.38;;;;;;;18.77;77.90;100396.22;5004140;28;20025;-95
2021/10/18 09:12:25;;;;;;;16.40;10.80;;;;;;;18.81;78.41;100402.09;5030887;28;20072;-93
2021/10/18 09:14:51;;;;;;;17.00;12.02;;;;;;;18.99;77.25;100407.34;5013340;28;20496;-94
2021/10/18 09:17:31;;;;;;;17.98;10.80;;;;;;;18.92;78.09;100425.78;4994582;28;20045;-94
2021/10/18 09:20:20;;;;;;;15.05;10.13;;;;;;;18.90;78.73;100413.59;5002590;28;20017;-93
2021/10/18 09:22:45;;;;;;;14.55;9.23;;;;;;;19.11;77.26;100400.75;5013127;28;20399;-93
2021/10/18 09:25:29;;;;;;;11.20;9.15;;;;;;;19.08;77.77;100416.22;4999283;28;20030;-96
2021/10/18 09:28:11;;;;;;;13.73;9.75;;;;;;;19.22;77.71;100410.28;4997541;28;20026;-96
2021/10/18 09:30:38;;;;;;;;;;;;;;;19.18;77.60;100414.25;5030796;28;20567;-95
2021/10/18 09:33:06;;;;;;;13.68;9.02;;;;;;;19.25;77.17;100414.44;5014927;28;20382;-96
2021/10/18 09:35:31;;;;;;;13.05;8.40;;;;;;;19.24;76.91;100405.63;5016635;28;20034;-95
2021/10/18 09:38:09;;;;;;;12.90;8.00;;;;;;;19.00;79.43;100419.66;5012578;28;20492;-96
2021/10/18 09:40:39;;;;;;;15.88;8.07;;;;;;;19.09;78.60;100399.25;5006968;28;20083;-94
2021/10/18 09:45:36;;;;;;;9.18;7.18;;;;;;;19.19;78.30;100402.59;5035393;28;20403;-94
2021/10/18 10:54:41;;;;;;;6.93;3.78;;;;;;;20.23;77.85;100369.34;4994327;28;20038;-86
2021/10/18 10:57:11;;;;;;;6.32;3.60;;;;;;;20.30;77.63;100377.47;4994681;28;20030;-85
2021/10/18 10:59:49;;;;;;;7.57;3.40;;;;;;;20.26;77.75;100369.00;4994846;28;20045;-87
2021/10/18 11:02:26;;;;;;;6.82;3.67;;;;;;;20.44;76.30;100366.16;4994534;28;20022;-87
2021/10/18 11:04:54;;;;;;;5.35;3.08;;;;;;;20.55;75.92;100359.63;4987122;28;20026;-88
2021/10/18 11:07:40;;;;;;;5.57;2.90;;;;;;;20.36;77.71;100367.00;4994539;28;20058;-87
2021/10/18 11:10:07;;;;;;;8.25;3.22;;;;;;;20.58;76.22;100362.78;4994232;28;20074;-87
2021/10/18 11:12:42;;;;;;;4.85;2.90;;;;;;;20.33;76.86;100358.50;4994942;28;20050;-89
2021/10/18 11:15:25;;;;;;;6.53;3.00;;;;;;;20.55;76.42;100347.09;4993465;28;20382;-88
2021/10/18 11:17:52;;;;;;;5.38;2.45;;;;;;;20.75;75.45;100350.28;4976858;28;20515;-90
2021/10/18 11:20:20;;;;;;;4.78;3.03;;;;;;;20.74;75.50;100345.94;4994905;28;20034;-90
2021/10/18 11:22:51;;;;;;;6.43;2.67;;;;;;;20.90;74.27;100345.03;4994288;28;20066;-89
2021/10/18 11:25:20;;;;;;;5.10;2.80;;;;;;;20.82;74.28;100352.25;4990726;28;20474;-89
2021/10/18 11:27:50;;;;;;;4.90;2.95;;;;;;;20.75;74.98;100352.09;4968922;28;20374;-90
2021/10/18 11:30:18;;;;;;;9.63;2.87;;;;;;;20.74;74.71;100350.44;4994274;28;20069;-88
2021/10/18 11:32:55;;;;;;;5.15;2.83;;;;;;;20.79;74.72;100348.91;4994075;28;20068;-87
2021/10/18 11:35:21;;;;;;;5.50;2.35;;;;;;;20.91;73.59;100351.19;4994435;28;20034;-88
2021/10/18 11:37:50;;;;;;;4.82;2.60;;;;;;;20.76;74.71;100348.44;4994179;28;20034;-90
2021/10/18 11:40:18;;;;;;;6.38;2.97;;;;;;;20.85;74.10;100351.88;4993693;28;20026;-86
2021/10/18 11:42:58;;;;;;;8.82;2.47;;;;;;;20.54;75.34;100361.47;4994220;28;20093;-85
2021/10/18 11:45:29;;;;;;;2.67;2.00;;;;;;;20.46;76.44;100345.47;4976791;28;20053;-87
2021/10/18 11:48:06;;;;;;;9.85;2.08;;;;;;;20.72;75.01;100341.78;4993488;28;20018;-88
2021/10/18 11:50:36;;;;;;;6.03;2.63;;;;;;;20.72;75.33;100341.78;4993968;28;20085;-85
2021/10/18 11:53:17;;;;;;;8.35;2.28;;;;;;;20.73;75.23;100351.44;4993077;28;20065;-85
2021/10/18 11:55:49;;;;;;;6.93;2.08;;;;;;;20.72;74.59;100355.94;4994143;28;20065;-85
2021/10/18 11:58:20;;;;;;;5.00;1.92;;;;;;;20.69;75.00;100355.44;4993487;28;20035;-85
2021/10/18 12:00:47;;;;;;;2.60;1.77;;;;;;;20.40;77.49;100359.50;4994135;28;20029;-84
2021/10/18 12:03:17;;;;;;;2.92;1.40;;;;;;;20.66;76.25;100356.63;4993584;28;20108;-87
2021/10/18 12:05:48;;;;;;;4.23;1.50;;;;;;;20.68;76.53;100357.28;4994196;28;20400;-86
2021/10/18 12:08:18;;;;;;;14.32;2.95;;;;;;;20.93;75.24;100352.69;4993518;28;20030;-85
2021/10/18 12:10:46;;;;;;;5.30;1.42;;;;;;;20.85;75.83;100352.72;4993647;28;20082;-86
2021/10/18 12:13:21;;;;;;;3.67;1.40;;;;;;;20.73;76.48;100365.59;4993421;28;20469;-88
2021/10/18 12:15:49;;;;;;;3.88;1.60;;;;;;;20.84;76.22;100374.25;4993862;28;20053;-87
2021/10/18 12:18:22;;;;;;;3.10;1.42;;;;;;;20.20;80.45;100356.34;4993439;28;20026;-87
2021/10/18 12:20:50;;;;;;;1.92;1.27;;;;;;;20.66;76.69;100353.97;4993478;28;20093;-88
2021/10/18 12:23:22;;;;;;;1.70;1.10;;;;;;;20.57;77.84;100350.44;4993192;28;20121;-87